Pembroke Pines, Florida
Current Conditions -  °F | °C
As of 7:53 PM on Tuesday 21 Oct 2014 (Local Time) from KHWO Reporting Station
Clear Clear  
Wind Chill: 74°   Ceiling: Unl
Heat Index: 74°   Visibility: 10mi
Dew Point: 68°   Wind: 3mph
Humidity: 82%   Direction: 10°N
Pressure: 29.95"   Gusts: NA
Location:  26.01°N, 80.28°W
Report Text: KHWO 212353Z 01003KT 10SM CLR 23/20 A2995 RMK AO2 SLP143 60000 T02330200 10267 20233 51014
Loading
Personal Weather Stations






























Interactive Weather Map New forecast layout! Learn more

10-Day Weather Forecast

Advertisements
Track Severe Weather on mobile